createdAt,value
2022-08-24T00:02:35.281Z,92.64
2022-08-24T00:05:21.508Z,91.46
2022-08-24T00:08:05.595Z,91.91
2022-08-24T00:10:49.607Z,92.84
2022-08-24T00:13:37.273Z,93.69
2022-08-24T00:16:23.680Z,91.89
2022-08-24T00:19:07.999Z,90.54
2022-08-24T00:21:52.285Z,91.48
2022-08-24T00:24:36.520Z,91.56
2022-08-24T00:27:20.570Z,89.95
2022-08-24T00:30:08.731Z,89.42
2022-08-24T00:32:54.323Z,88.64
2022-08-24T00:35:38.402Z,88.37
2022-08-24T00:38:22.664Z,88.24
2022-08-24T00:41:11.854Z,87.82
2022-08-24T00:43:58.478Z,88.10
2022-08-24T00:46:51.528Z,89.07
2022-08-24T00:49:40.601Z,90.32
2022-08-24T00:52:29.680Z,91.52
2022-08-24T00:55:19.152Z,89.94
2022-08-24T00:58:07.881Z,90.85
2022-08-24T01:00:58.147Z,90.55
2022-08-24T01:03:46.400Z,91.16
2022-08-24T01:06:32.109Z,90.87
2022-08-24T01:09:16.256Z,89.91
2022-08-24T01:12:01.717Z,89.87
2022-08-24T01:14:46.041Z,89.24
2022-08-24T01:17:47.638Z,90.56
2022-08-24T01:20:33.513Z,89.83
2022-08-24T01:23:36.624Z,89.49
2022-08-24T01:26:23.689Z,89.35
2022-08-24T01:29:11.072Z,89.04
2022-08-24T01:31:55.552Z,88.65
2022-08-24T01:34:39.670Z,88.37
2022-08-24T01:37:23.993Z,87.75
2022-08-24T01:40:10.628Z,88.37
2022-08-24T01:42:55.437Z,89.26
2022-08-24T01:45:39.807Z,89.04
2022-08-24T01:48:24.621Z,89.19
2022-08-24T01:51:10.613Z,87.86
2022-08-24T01:53:54.673Z,89.31
2022-08-24T01:56:40.451Z,87.73
2022-08-24T01:59:25.620Z,88.19
2022-08-24T02:02:13.360Z,88.41
2022-08-24T02:04:57.589Z,88.82
2022-08-24T02:07:41.794Z,89.08
2022-08-24T02:10:26.490Z,89.13
2022-08-24T02:13:11.980Z,89.75
2022-08-24T02:15:56.262Z,89.92
2022-08-24T02:18:41.454Z,89.34
2022-08-24T02:21:26.392Z,89.64
2022-08-24T02:24:10.864Z,88.75
2022-08-24T02:26:55.976Z,89.72
2022-08-24T02:29:42.569Z,90.09
2022-08-24T02:32:26.623Z,89.06
2022-08-24T02:35:11.360Z,91.13
2022-08-24T02:37:55.472Z,89.86
2022-08-24T02:40:39.680Z,89.66
2022-08-24T02:43:24.492Z,89.76
2022-08-24T02:46:13.899Z,89.80
2022-08-24T02:49:10.399Z,89.03
2022-08-24T02:51:57.982Z,89.11
2022-08-24T02:54:42.172Z,89.20
2022-08-24T02:57:26.335Z,88.54
2022-08-24T03:00:13.494Z,89.48
2022-08-24T03:03:10.364Z,89.25
2022-08-24T03:05:54.488Z,88.72
2022-08-24T03:08:42.554Z,87.57
2022-08-24T03:11:32.868Z,88.21
2022-08-24T03:14:17.433Z,87.57
2022-08-24T03:17:01.565Z,87.36
2022-08-24T03:19:47.599Z,88.83
2022-08-24T03:22:31.755Z,87.92
2022-08-24T03:25:18.422Z,88.00
2022-08-24T03:28:02.824Z,87.86
2022-08-24T03:30:52.834Z,88.32
2022-08-24T03:33:37.119Z,87.83
2022-08-24T03:36:23.091Z,88.61
2022-08-24T03:39:07.485Z,89.04
2022-08-24T03:41:51.641Z,88.60
2022-08-24T03:44:35.815Z,88.02
2022-08-24T03:47:20.342Z,87.93
2022-08-24T03:50:05.225Z,87.88
2022-08-24T03:52:51.326Z,87.83
2022-08-24T03:55:35.335Z,86.49
2022-08-24T03:58:19.553Z,87.00
2022-08-24T04:01:03.980Z,86.38
2022-08-24T04:03:50.036Z,86.45
2022-08-24T04:06:34.072Z,85.97
2022-08-24T04:09:20.177Z,85.84
2022-08-24T04:12:05.695Z,85.44
2022-08-24T04:14:52.765Z,84.36
2022-08-24T04:17:36.886Z,83.98
2022-08-24T04:20:23.130Z,84.10
2022-08-24T04:23:09.693Z,83.97
2022-08-24T04:26:04.280Z,83.43
2022-08-24T04:28:49.000Z,83.55
2022-08-24T04:31:33.957Z,83.35
2022-08-24T04:34:19.058Z,82.28
2022-08-24T04:37:03.311Z,82.61
2022-08-24T04:39:47.588Z,80.98
2022-08-24T04:42:33.607Z,81.09
2022-08-24T04:45:18.750Z,79.28
2022-08-24T04:48:02.933Z,78.72
2022-08-24T04:50:47.562Z,78.82
2022-08-24T04:53:31.896Z,78.18
2022-08-24T04:56:17.961Z,77.60
2022-08-24T04:59:06.270Z,77.34
2022-08-24T05:01:52.474Z,76.53
2022-08-24T05:04:37.666Z,77.10
2022-08-24T05:07:21.857Z,76.43
2022-08-24T05:10:11.055Z,75.77
2022-08-24T05:12:55.247Z,75.46
2022-08-24T05:15:45.782Z,74.89
2022-08-24T05:18:31.996Z,74.48
2022-08-24T05:21:18.564Z,74.04
2022-08-24T05:24:04.104Z,73.43
2022-08-24T05:26:49.914Z,73.48
2022-08-24T05:29:34.987Z,73.22
2022-08-24T05:32:21.114Z,73.70
2022-08-24T05:35:07.866Z,72.83
2022-08-24T05:37:52.313Z,72.16
2022-08-24T05:40:39.009Z,71.44
2022-08-24T05:43:24.617Z,70.52
2022-08-24T05:46:08.807Z,69.29
2022-08-24T05:48:55.083Z,68.50
2022-08-24T05:51:49.927Z,69.26
2022-08-24T05:54:34.036Z,68.40
2022-08-24T05:57:21.026Z,68.21
2022-08-24T06:00:16.939Z,66.52
2022-08-24T06:03:03.915Z,65.36
2022-08-24T06:05:53.233Z,65.53
2022-08-24T06:08:41.253Z,64.18
2022-08-24T06:11:30.725Z,63.42
2022-08-24T06:14:19.686Z,63.12
2022-08-24T06:17:11.470Z,64.04
2022-08-24T06:19:57.165Z,64.71
2022-08-24T06:22:44.597Z,62.05
2022-08-24T06:25:46.754Z,60.51
2022-08-24T06:28:32.405Z,59.05
2022-08-24T06:31:17.312Z,58.90
2022-08-24T06:34:01.457Z,58.85
2022-08-24T06:36:46.566Z,59.37
2022-08-24T06:39:32.724Z,58.16
2022-08-24T06:42:18.809Z,58.09
2022-08-24T06:45:03.208Z,56.98
2022-08-24T06:47:48.327Z,57.15
2022-08-24T06:50:34.241Z,55.90
2022-08-24T06:53:18.995Z,56.28
2022-08-24T06:56:06.570Z,56.91
2022-08-24T06:58:51.803Z,56.52
2022-08-24T07:01:36.959Z,56.01
2022-08-24T07:04:24.071Z,55.07
2022-08-24T07:07:18.681Z,54.66
2022-08-24T07:10:03.381Z,55.25
2022-08-24T07:12:49.918Z,54.07
2022-08-24T07:15:34.484Z,54.04
2022-08-24T07:18:30.320Z,53.26
2022-08-24T07:21:19.722Z,53.92
2022-08-24T07:24:07.213Z,54.35
2022-08-24T07:26:54.290Z,53.62
2022-08-24T07:29:56.491Z,52.96
2022-08-24T07:32:44.700Z,52.13
2022-08-24T07:35:31.245Z,51.32
2022-08-24T07:38:15.438Z,51.29
2022-08-24T07:41:33.218Z,51.01
2022-08-24T07:44:05.665Z,50.17
2022-08-24T07:46:52.659Z,50.17
2022-08-24T07:49:39.706Z,49.35
2022-08-24T07:52:24.215Z,49.22
2022-08-24T07:55:09.040Z,48.33
2022-08-24T07:57:53.276Z,47.25
2022-08-24T08:00:37.793Z,46.49
2022-08-24T08:03:26.610Z,45.68
2022-08-24T08:06:15.983Z,45.60
2022-08-24T08:09:00.936Z,45.38
2022-08-24T08:11:47.004Z,45.67
2022-08-24T08:14:31.064Z,45.87
2022-08-24T08:17:15.217Z,46.57
2022-08-24T08:20:01.649Z,45.65
2022-08-24T08:23:04.466Z,45.12
2022-08-24T08:25:52.533Z,45.63
2022-08-24T08:28:43.838Z,46.46
2022-08-24T08:31:27.936Z,46.06
2022-08-24T08:34:13.250Z,45.46
2022-08-24T08:36:59.462Z,44.83
2022-08-24T08:39:44.276Z,44.64
2022-08-24T08:42:49.294Z,45.03
2022-08-24T08:45:49.074Z,44.85
2022-08-24T08:49:16.736Z,44.17
2022-08-24T08:52:34.464Z,44.44
2022-08-24T08:55:30.153Z,45.32
2022-08-24T08:58:36.854Z,45.47
2022-08-24T09:01:33.283Z,45.63
2022-08-24T09:04:49.000Z,45.41
2022-08-24T09:07:46.217Z,45.87
2022-08-24T09:10:55.919Z,45.63
2022-08-24T09:14:11.640Z,44.93
2022-08-24T09:17:18.616Z,43.85
2022-08-24T09:20:20.373Z,42.93
2022-08-24T09:23:18.353Z,41.90
2022-08-24T09:26:06.379Z,41.21
2022-08-24T09:29:00.894Z,41.42
2022-08-24T09:32:04.813Z,40.99
2022-08-24T09:34:57.300Z,41.47
2022-08-24T09:38:01.048Z,41.21
2022-08-24T09:41:10.569Z,39.90
2022-08-24T09:44:21.779Z,39.70
2022-08-24T09:47:28.798Z,39.78
2022-08-24T09:50:54.758Z,40.17
2022-08-24T09:54:27.341Z,39.35
2022-08-24T09:57:50.196Z,36.41
2022-08-24T10:00:42.890Z,36.85
2022-08-24T10:03:42.289Z,37.98
2022-08-24T10:06:35.502Z,37.63
2022-08-24T10:09:50.447Z,40.21
2022-08-24T10:12:52.897Z,39.27
2022-08-24T10:15:48.367Z,39.85
2022-08-24T10:18:46.873Z,40.16
2022-08-24T10:21:45.798Z,41.09
2022-08-24T10:24:53.855Z,41.63
2022-08-24T10:27:54.312Z,40.74
2022-08-24T10:31:03.014Z,42.61
2022-08-24T10:34:00.005Z,42.93
2022-08-24T10:37:07.497Z,42.80
2022-08-24T10:40:25.552Z,42.68
2022-08-24T10:43:44.381Z,42.50
2022-08-24T10:46:47.005Z,41.09
2022-08-24T10:50:09.354Z,40.26
2022-08-24T10:53:15.160Z,40.58
2022-08-24T10:56:08.108Z,40.84
2022-08-24T10:59:03.933Z,40.54
2022-08-24T11:02:12.811Z,41.96
2022-08-24T11:04:59.068Z,42.96
2022-08-24T11:08:05.279Z,43.07
2022-08-24T11:11:08.104Z,44.43
2022-08-24T11:14:00.579Z,43.88
2022-08-24T11:16:47.121Z,43.11
2022-08-24T11:19:33.701Z,42.37
2022-08-24T11:22:36.970Z,41.49
2022-08-24T11:25:27.605Z,41.86
2022-08-24T11:28:22.082Z,40.22
2022-08-24T11:31:12.763Z,39.21
2022-08-24T11:34:03.731Z,38.83
2022-08-24T11:36:48.025Z,40.96
2022-08-24T11:39:35.458Z,40.89
2022-08-24T11:42:31.528Z,41.01
2022-08-24T11:45:22.629Z,39.26
2022-08-24T11:48:25.704Z,40.27
2022-08-24T11:51:21.955Z,40.37
2022-08-24T11:54:19.498Z,39.22
2022-08-24T11:57:12.673Z,38.40
2022-08-24T12:00:03.652Z,39.27
2022-08-24T12:03:03.329Z,38.57
2022-08-24T12:05:54.486Z,38.98
2022-08-24T12:08:46.049Z,38.59
2022-08-24T12:11:37.765Z,37.80
2022-08-24T12:14:30.611Z,37.80
2022-08-24T12:17:20.550Z,37.44
2022-08-24T12:20:10.945Z,38.85
2022-08-24T12:23:03.542Z,38.46
2022-08-24T12:26:04.900Z,39.08
2022-08-24T12:28:54.435Z,39.97
2022-08-24T12:31:43.885Z,41.08
2022-08-24T12:34:38.627Z,40.53
2022-08-24T12:37:29.759Z,39.77
2022-08-24T12:40:25.181Z,39.33
2022-08-24T12:43:12.804Z,38.90
2022-08-24T12:46:00.050Z,39.30
2022-08-24T12:48:51.014Z,38.14
2022-08-24T12:52:00.169Z,37.19
2022-08-24T12:55:02.321Z,37.76
2022-08-24T12:57:55.286Z,38.19
2022-08-24T13:00:45.663Z,36.99
2022-08-24T13:03:35.982Z,39.08
2022-08-24T13:06:21.967Z,38.04
2022-08-24T13:09:10.463Z,37.86
2022-08-24T13:11:56.166Z,37.84
2022-08-24T13:14:50.982Z,38.79
2022-08-24T13:17:42.466Z,39.77
2022-08-24T13:20:30.157Z,41.56
2022-08-24T13:23:19.061Z,41.53
2022-08-24T13:26:23.886Z,41.41
2022-08-24T13:29:09.405Z,40.92
2022-08-24T13:31:57.833Z,39.26
2022-08-24T13:34:46.038Z,38.68
2022-08-24T13:37:30.575Z,39.00
2022-08-24T13:40:27.899Z,38.90
2022-08-24T13:43:17.637Z,39.83
2022-08-24T13:46:13.999Z,38.83
2022-08-24T13:49:03.699Z,39.38
2022-08-24T13:51:55.474Z,37.97
2022-08-24T13:54:48.828Z,37.52
2022-08-24T13:57:43.100Z,37.49
2022-08-24T14:00:40.080Z,37.73
2022-08-24T14:03:52.436Z,38.05
2022-08-24T14:06:49.155Z,38.59
2022-08-24T14:09:42.376Z,38.97
2022-08-24T14:12:45.636Z,38.36
2022-08-24T14:15:47.692Z,38.24
2022-08-24T14:18:43.900Z,38.18
2022-08-24T14:21:41.500Z,38.91
2022-08-24T14:24:32.617Z,38.48
2022-08-24T14:27:42.130Z,39.09
2022-08-24T14:30:43.014Z,38.29
2022-08-24T14:33:33.257Z,37.93
2022-08-24T14:36:21.743Z,37.95
2022-08-24T14:39:20.110Z,39.77
2022-08-24T14:42:17.108Z,40.18
2022-08-24T14:45:06.929Z,41.60
2022-08-24T14:48:02.781Z,41.67
2022-08-24T14:50:56.260Z,40.67
2022-08-24T14:54:00.985Z,40.89
2022-08-24T14:57:01.128Z,41.29
2022-08-24T14:59:56.825Z,41.60
2022-08-24T15:03:11.627Z,42.03
2022-08-24T15:06:26.385Z,41.70
2022-08-24T15:09:18.501Z,41.67
2022-08-24T15:12:15.595Z,41.39
2022-08-24T15:15:06.471Z,42.33
2022-08-24T15:18:00.141Z,41.92
2022-08-24T15:21:00.064Z,43.10
2022-08-24T15:23:57.973Z,42.41
2022-08-24T15:26:56.021Z,42.92
2022-08-24T15:29:53.788Z,42.47
2022-08-24T15:32:45.153Z,43.32
2022-08-24T15:35:32.779Z,43.41
2022-08-24T15:38:23.708Z,43.29
2022-08-24T15:41:13.368Z,44.75
2022-08-24T15:44:01.276Z,44.78
2022-08-24T15:46:51.152Z,44.37
2022-08-24T15:49:39.675Z,45.28
2022-08-24T15:52:44.764Z,44.92
2022-08-24T15:55:34.023Z,44.66
2022-08-24T15:58:33.288Z,46.17
2022-08-24T16:01:41.056Z,47.22
2022-08-24T16:04:48.086Z,48.71
2022-08-24T16:07:36.037Z,48.82
2022-08-24T16:10:31.620Z,47.95
2022-08-24T16:13:25.397Z,48.14
2022-08-24T16:16:15.391Z,48.66
2022-08-24T16:19:02.096Z,49.11
2022-08-24T16:22:00.053Z,49.05
2022-08-24T16:24:45.259Z,49.06
2022-08-24T16:28:00.617Z,48.57
2022-08-24T16:30:51.569Z,49.28
2022-08-24T16:33:44.414Z,49.60
2022-08-24T16:36:29.435Z,49.38
2022-08-24T16:39:15.001Z,48.92
2022-08-24T16:42:03.677Z,48.86
2022-08-24T16:44:47.929Z,49.26
2022-08-24T16:47:32.100Z,49.01
2022-08-24T16:50:19.824Z,49.50
2022-08-24T16:53:04.518Z,49.92
2022-08-24T16:55:50.310Z,50.53
2022-08-24T16:58:37.234Z,50.78
2022-08-24T17:01:21.712Z,50.78
2022-08-24T17:04:06.251Z,51.25
2022-08-24T17:06:50.831Z,51.30
2022-08-24T17:09:38.025Z,50.77
2022-08-24T17:12:24.100Z,50.29
2022-08-24T17:15:11.777Z,50.45
2022-08-24T17:18:01.581Z,50.52
2022-08-24T17:20:45.670Z,50.88
2022-08-24T17:23:29.689Z,50.79
2022-08-24T17:26:20.398Z,51.12
2022-08-24T17:29:10.602Z,51.27
2022-08-24T17:31:59.160Z,52.27
2022-08-24T17:34:43.398Z,52.15
2022-08-24T17:37:27.411Z,52.37
2022-08-24T17:40:15.057Z,53.63
2022-08-24T17:42:59.650Z,53.52
2022-08-24T17:45:45.496Z,55.12
2022-08-24T17:48:34.054Z,55.60
2022-08-24T17:51:18.445Z,56.57
2022-08-24T17:54:02.431Z,57.61
2022-08-24T17:56:48.895Z,58.41
2022-08-24T17:59:35.119Z,59.42
2022-08-24T18:02:20.866Z,58.44
2022-08-24T18:05:05.772Z,58.90
2022-08-24T18:07:54.301Z,58.33
2022-08-24T18:10:38.730Z,58.56
2022-08-24T18:13:22.839Z,58.31
2022-08-24T18:16:08.185Z,58.18
2022-08-24T18:18:54.205Z,59.45
2022-08-24T18:21:38.145Z,59.86
2022-08-24T18:24:22.324Z,59.52
2022-08-24T18:27:10.301Z,61.13
2022-08-24T18:29:57.333Z,60.72
2022-08-24T18:32:41.637Z,61.27
2022-08-24T18:35:27.147Z,60.73
2022-08-24T18:38:11.533Z,60.51
2022-08-24T18:40:55.710Z,60.71
2022-08-24T18:43:40.651Z,60.53
2022-08-24T18:46:25.236Z,60.42
2022-08-24T18:49:09.465Z,60.35
2022-08-24T18:51:55.416Z,60.08
2022-08-24T18:54:44.843Z,60.76
2022-08-24T18:57:29.012Z,60.85
2022-08-24T19:00:14.490Z,60.56
2022-08-24T19:03:03.133Z,60.43
2022-08-24T19:05:47.819Z,60.96
2022-08-24T19:08:33.382Z,62.02
2022-08-24T19:11:20.660Z,61.83
2022-08-24T19:14:04.805Z,61.22
2022-08-24T19:16:48.946Z,60.77
2022-08-24T19:19:36.928Z,61.24
2022-08-24T19:22:22.042Z,61.27
2022-08-24T19:25:08.944Z,61.43
2022-08-24T19:27:55.354Z,61.34
2022-08-24T19:30:40.259Z,61.84
2022-08-24T19:33:33.269Z,61.67
2022-08-24T19:36:17.379Z,61.75
2022-08-24T19:39:01.534Z,62.16
2022-08-24T19:41:49.532Z,61.90
2022-08-24T19:44:51.873Z,62.18
2022-08-24T19:47:36.374Z,61.96
2022-08-24T19:50:21.197Z,60.96
2022-08-24T19:53:06.190Z,60.71
2022-08-24T19:55:50.573Z,60.66
2022-08-24T19:58:44.571Z,60.26
2022-08-24T20:01:31.508Z,60.54
2022-08-24T20:04:15.695Z,61.17
2022-08-24T20:06:59.822Z,61.82
2022-08-24T20:09:43.835Z,61.21
2022-08-24T20:12:28.192Z,60.64
2022-08-24T20:15:14.504Z,60.87
2022-08-24T20:17:59.485Z,60.90
2022-08-24T20:20:44.331Z,61.07
2022-08-24T20:23:31.046Z,61.50
2022-08-24T20:26:15.481Z,64.23
2022-08-24T20:28:59.997Z,64.42
2022-08-24T20:31:46.962Z,64.19
2022-08-24T20:34:35.093Z,65.18
2022-08-24T20:37:23.459Z,65.26
2022-08-24T20:40:08.786Z,65.63
2022-08-24T20:42:54.381Z,65.72
2022-08-24T20:45:38.551Z,65.46
2022-08-24T20:48:28.708Z,66.04
2022-08-24T20:51:12.827Z,66.82
2022-08-24T20:53:57.084Z,67.04
2022-08-24T20:56:41.346Z,66.61
2022-08-24T20:59:25.976Z,67.04
2022-08-24T21:02:10.125Z,68.04
2022-08-24T21:04:56.317Z,68.94
2022-08-24T21:07:46.122Z,69.09
2022-08-24T21:10:30.173Z,69.27
2022-08-24T21:13:14.500Z,69.64
2022-08-24T21:15:58.632Z,68.95
2022-08-24T21:18:43.198Z,70.09
2022-08-24T21:21:28.929Z,69.65
2022-08-24T21:24:12.992Z,69.74
2022-08-24T21:26:57.233Z,69.51
2022-08-24T21:29:41.379Z,69.54
2022-08-24T21:32:45.202Z,69.14
2022-08-24T21:35:29.508Z,68.70
2022-08-24T21:38:15.407Z,68.67
2022-08-24T21:41:00.681Z,68.75
2022-08-24T21:43:44.936Z,68.62
2022-08-24T21:46:32.688Z,68.28
2022-08-24T21:49:16.694Z,68.29
2022-08-24T21:52:00.689Z,67.80
2022-08-24T21:54:46.389Z,68.40
2022-08-24T21:57:30.591Z,68.68
2022-08-24T22:00:19.335Z,67.21
2022-08-24T22:03:04.149Z,67.82
2022-08-24T22:05:48.472Z,66.93
2022-08-24T22:08:32.636Z,66.73
2022-08-24T22:11:21.006Z,66.57
2022-08-24T22:14:05.618Z,66.71
2022-08-24T22:16:50.013Z,67.83
2022-08-24T22:19:34.116Z,67.62
2022-08-24T22:22:18.180Z,67.32
2022-08-24T22:25:02.476Z,67.00
2022-08-24T22:27:49.891Z,66.83
2022-08-24T22:30:35.049Z,67.40
2022-08-24T22:33:19.610Z,67.17
2022-08-24T22:36:04.153Z,68.11
2022-08-24T22:38:48.412Z,67.66
2022-08-24T22:41:32.805Z,67.73
2022-08-24T22:44:21.617Z,68.00
2022-08-24T22:47:13.227Z,68.89
2022-08-24T22:49:59.220Z,69.77
2022-08-24T22:52:43.271Z,69.24
2022-08-24T22:55:27.575Z,69.33
2022-08-24T22:58:11.620Z,69.69
2022-08-24T23:00:57.368Z,70.10
2022-08-24T23:03:41.584Z,69.40
2022-08-24T23:06:30.501Z,68.78
2022-08-24T23:09:14.829Z,68.58
2022-08-24T23:11:58.959Z,68.82
2022-08-24T23:14:43.643Z,68.78
2022-08-24T23:17:29.152Z,69.14
2022-08-24T23:20:12.613Z,69.39
2022-08-24T23:22:56.934Z,70.38
2022-08-24T23:25:40.983Z,71.21
2022-08-24T23:28:25.091Z,71.24
2022-08-24T23:31:11.552Z,70.78
2022-08-24T23:33:57.489Z,71.63
2022-08-24T23:36:42.601Z,72.59
2022-08-24T23:39:26.837Z,72.35
2022-08-24T23:42:11.631Z,71.86
2022-08-24T23:44:55.809Z,72.03
2022-08-24T23:47:42.152Z,72.03
2022-08-24T23:50:27.871Z,71.56
2022-08-24T23:53:12.038Z,72.59
2022-08-24T23:55:56.284Z,73.40
2022-08-24T23:58:41.020Z,74.99
